SKLO2: Skiatook Lake

Data processed at Sun May 28 2017 23:01


All information presented herein is the property of the government of the United States of America and may be revised or deleted at any time without prior notice.
Dissemination of this information without the expressed written consent of the Public Affairs Office, Tulsa District U.S. Army Corps of Engineers is strictly prohibited.
These data are gathered electronically and, as presented, have not undergone any form of quality control. These data are not guaranteed to be valid or correct.
Go to home page.
Go to station list.
Go to home page.

Upstream stations:

Downstream station:
Previous Day
Next Day
Current Day
    
SHEF ID:       SKLO2     Skiatook Lake
STATION TYPE:  RESERVOIR
Normal Pool:  Bottom =   657.00, Top =   714.00

               PRECIP ELEVATION   STORAGE   TW-ELEV    INFLOW   RELEASE  AIR-TEMP  WIND-DIRWIND-SPEED REL-HUMID SOLAR-RAD   VOLTAGE  BAT-LOAD
                   in        ft     ac-ft        ft       cfs       cfs         F       deg       mph         %      W/m2      volt      volt
              Ccp-Rev   Ccp-Rev   Ccp-Rev   Ccp-Rev  Regi-Rev  Regi-Rev   Ccp-Rev   Ccp-Rev   Ccp-Rev   Ccp-Rev   Ccp-Rev   Ccp-Rev   Ccp-Rev
(US/Central)
05/28 00:00      0.00    722.51    415626      ----        40      1989     75.40      9.01     13.52     68.08      0.00     12.71     12.49
05/28 01:00      0.00    722.50    415505      ----        39      1990     73.65      7.30     13.81     66.17      0.00     12.70     12.49
05/28 02:00      0.00    722.49    415384      ----        39      1988     72.37    356.62     14.12     65.21      0.00     12.69     12.49
05/28 03:00      0.00    722.47    415141      ----        40      1988     70.77      0.70     14.99     70.63      0.00     12.68     12.41
05/28 04:00      0.00    722.44    414777      ----        39      1988     69.24      9.52      6.07     77.25      0.00     12.66     12.41
05/28 05:00      0.00    722.44    414777      ----        38      1988     68.92    286.03      2.30     81.02      0.00     12.65     12.41
05/28 06:00      0.00    722.42    414535      ----        37      1988     66.38    321.63      5.35     88.04      0.00     12.64     12.41
05/28 07:00      0.00    722.39    414171      ----        37      1988     65.48    344.03      3.69     87.68      0.12     12.64     12.41
05/28 08:00      0.00    722.36    413807      ----        37      1987     66.49    340.71      4.71     83.97    189.41     13.12     12.41
05/28 09:00      0.00    722.39    414171      ----        37      1987     68.54      8.57      8.03     77.33    335.84     13.69     12.89
05/28 10:00      0.00    722.34    413564      ----        38      1987     71.02     21.22      8.46     68.22    638.28     13.58     13.44
05/28 11:00      0.00    722.34    413564      ----        39      1987     73.24      7.68      8.18     59.83    784.40     13.88     13.68
05/28 12:00      0.00    722.33    413443      ----        38      1987     75.06      5.32      7.70     54.73    931.49     13.68     13.29
05/28 13:00      0.00    722.31    413200      ----        37      1987     77.04    347.74      7.39     50.99   1053.95     13.86     13.37
05/28 14:00      0.00    722.29    412958      ----        35      1987     79.16    329.93      6.41     48.39   1047.14     13.83     13.76
05/28 15:00      0.00    722.28    412836      ----        34      1986     79.65    306.89      6.33     49.27    858.33     13.85     13.53
05/28 16:00      0.00    722.26    412594      ----        34      1986     81.18    326.61      8.16     44.83    691.61     13.80     14.00
05/28 17:00      0.00    722.24    412351      ----        33      1986     81.16    342.74      8.01     41.13    659.97     13.72     13.76
05/28 18:00      0.00    722.22    412109      ----        34      1986     81.90    346.79      7.00     32.11    606.66     13.82     13.92
05/28 19:00      0.00    722.21    411987      ----        34      1986     81.27    349.66      6.00     34.84    380.35     13.99     12.97
05/28 20:00      0.00    722.20    411866      ----        34      1986     79.47    355.09      3.01     43.14    157.80     12.92     12.89
05/28 21:00      0.00    722.19    411745      ----        33      1985     74.41    311.17      1.57     58.49      8.83     12.74     12.65
05/28 22:00      0.00    722.16    411381      ----        33      1985     71.15    252.63      2.17     71.41      0.00     12.72     12.49
05/28 23:00      ----      ----      ----      ----      ----      ----      ----      ----      ----      ----      ----      ----      ----